Time;durP1;ratioP1;P1;durP2;ratioP2;P2;SDS_P1;SDS_P2;PMS_P1;PMS_P2;Temp;Humidity;BMP_temperature;BMP_pressure;BME280_temperature;BME280_humidity;BME280_pressure;Samples;Min_cycle;Max_cycle;Signal;HPM_P1;HPM_P2
2021/07/29 00:01:16;;;;;;;5.47;1.70;;;;;;;23.02;51.22;100790.34;5002056;28;20048;-87
2021/07/29 00:03:42;;;;;;;4.10;1.92;;;;;;;23.00;51.07;100790.41;5018296;28;20033;-86
2021/07/29 00:06:13;;;;;;;4.13;1.77;;;;;;;23.02;51.10;100790.34;5002075;28;20049;-87
2021/07/29 00:08:38;;;;;;;4.70;1.77;;;;;;;23.02;51.29;100800.84;5018167;28;20033;-87
2021/07/29 00:11:03;;;;;;;3.53;1.58;;;;;;;23.00;51.45;100787.78;5002040;28;20484;-86
2021/07/29 00:13:29;;;;;;;4.53;1.80;;;;;;;23.00;50.96;100788.66;5017980;28;20045;-87
2021/07/29 00:15:54;;;;;;;3.70;1.65;;;;;;;23.00;51.45;100785.19;5034716;28;20057;-87
2021/07/29 00:21:03;;;;;;;2.38;1.38;;;;;;;23.00;51.28;100782.56;5020654;28;20072;-87
2021/07/29 00:23:29;;;;;;;3.47;1.50;;;;;;;23.01;51.26;100779.00;5017920;28;20444;-85
2021/07/29 00:25:54;;;;;;;4.50;1.83;;;;;;;23.00;51.51;100772.91;5017892;28;20033;-86
2021/07/29 00:28:20;;;;;;;4.45;2.00;;;;;;;23.01;51.43;100773.75;5017756;28;20496;-85
2021/07/29 00:30:45;;;;;;;4.30;1.85;;;;;;;23.00;51.62;100767.66;5017621;28;20034;-85
2021/07/29 00:33:14;;;;;;;3.45;1.70;;;;;;;23.02;51.70;100758.84;5017793;28;20105;-85
2021/07/29 00:35:40;;;;;;;4.05;1.92;;;;;;;23.01;51.58;100760.63;5018295;28;20116;-86
2021/07/29 00:38:05;;;;;;;4.18;1.77;;;;;;;23.01;51.63;100758.00;5017532;28;20117;-86
2021/07/29 00:40:30;;;;;;;3.20;1.60;;;;;;;23.02;51.50;100750.97;5001216;28;20044;-86
2021/07/29 00:42:56;;;;;;;4.65;1.70;;;;;;;22.99;51.70;100746.66;5017836;28;20033;-85
2021/07/29 00:45:22;;;;;;;3.65;1.70;;;;;;;22.99;51.80;100749.28;5033860;28;20112;-85
2021/07/29 00:47:47;;;;;;;3.08;1.63;;;;;;;23.01;51.69;100752.75;5017114;28;20115;-85
2021/07/29 00:50:14;;;;;;;3.47;1.70;;;;;;;23.02;51.56;100745.72;5033906;28;20392;-85
2021/07/29 00:52:40;;;;;;;4.25;1.60;;;;;;;23.02;52.10;100733.50;5017366;28;20056;-84
2021/07/29 00:55:07;;;;;;;3.42;1.45;;;;;;;23.01;51.74;100758.00;5033745;28;20037;-86
2021/07/29 00:57:34;;;;;;;2.75;1.45;;;;;;;23.02;51.51;100788.59;5017179;28;20033;-85
2021/07/29 01:00:00;;;;;;;3.13;1.40;;;;;;;23.02;51.79;100793.84;5033584;28;20045;-84
2021/07/29 01:02:26;;;;;;;3.35;1.58;;;;;;;23.03;51.68;100813.09;5035490;28;20499;-86
2021/07/29 01:04:51;;;;;;;4.00;1.50;;;;;;;23.03;51.85;100798.19;5018792;28;20025;-86
2021/07/29 01:07:17;;;;;;;4.80;1.50;;;;;;;23.02;52.08;100793.84;5018268;28;20025;-85
2021/07/29 01:09:42;;;;;;;3.00;1.48;;;;;;;23.02;51.82;100785.09;5017241;28;20033;-85
2021/07/29 01:12:09;;;;;;;4.75;1.83;;;;;;;23.00;51.77;100783.41;5033953;28;20025;-85
2021/07/29 01:14:34;;;;;;;3.63;1.38;;;;;;;22.99;51.65;100786.91;5017125;28;20614;-85
2021/07/29 01:17:00;;;;;;;2.25;1.27;;;;;;;23.00;52.09;100793.91;5034800;28;20104;-85
2021/07/29 01:19:27;;;;;;;2.55;1.42;;;;;;;22.99;52.00;100813.16;5000797;28;20367;-85
2021/07/29 01:21:57;;;;;;;3.22;1.70;;;;;;;23.00;52.02;100808.78;5000613;28;20479;-86
2021/07/29 01:24:23;;;;;;;3.42;1.65;;;;;;;22.99;52.16;100799.16;5033257;28;20013;-84
2021/07/29 01:26:49;;;;;;;4.40;1.67;;;;;;;22.98;52.00;100779.94;5000465;28;20159;-84
2021/07/29 01:29:14;;;;;;;4.20;1.48;;;;;;;22.98;52.26;100779.94;5016954;28;20112;-87
2021/07/29 01:31:40;;;;;;;2.15;1.27;;;;;;;22.98;52.17;100787.81;5016000;28;20502;-86
2021/07/29 01:34:06;;;;;;;3.10;1.30;;;;;;;22.97;51.97;100772.09;5016625;28;20033;-86
2021/07/29 01:36:31;;;;;;;2.38;1.45;;;;;;;22.97;51.97;100772.09;5016596;28;20036;-86
2021/07/29 01:38:57;;;;;;;2.83;1.48;;;;;;;22.97;52.13;100761.59;5033068;28;20113;-86
2021/07/29 01:41:22;;;;;;;3.22;1.33;;;;;;;22.97;52.17;100777.34;5016621;28;20034;-85
2021/07/29 01:43:48;;;;;;;2.50;1.00;;;;;;;22.96;52.11;100775.66;4999921;28;20053;-85
2021/07/29 01:46:13;;;;;;;8.15;1.38;;;;;;;22.95;52.19;100771.28;5016280;28;20076;-85
2021/07/29 01:48:39;;;;;;;4.25;1.40;;;;;;;22.95;52.15;100764.31;4999828;28;20124;-85
2021/07/29 01:51:04;;;;;;;1.58;1.05;;;;;;;22.95;52.35;100758.16;5000007;28;20026;-85
2021/07/29 01:53:30;;;;;;;2.55;1.30;;;;;;;22.95;52.39;100771.28;5016765;28;20083;-85
2021/07/29 01:55:55;;;;;;;2.63;1.13;;;;;;;22.96;51.94;100765.16;5016161;28;20430;-85
2021/07/29 01:58:21;;;;;;;2.53;1.17;;;;;;;22.94;52.28;100759.94;5016158;28;20433;-85
2021/07/29 02:00:51;;;;;;;2.83;1.30;;;;;;;22.95;52.37;100766.03;5016401;28;20029;-85
2021/07/29 02:03:16;;;;;;;4.05;1.25;;;;;;;22.94;52.22;100764.34;5032598;28;20022;-85
2021/07/29 02:05:42;;;;;;;2.17;1.20;;;;;;;22.96;52.48;100770.41;5032764;28;20152;-85
2021/07/29 02:08:07;;;;;;;2.20;1.08;;;;;;;22.95;52.39;100768.66;4999933;28;20056;-85
2021/07/29 02:10:33;;;;;;;2.33;1.13;;;;;;;22.94;52.41;100770.44;5032785;28;20072;-85
2021/07/29 02:12:59;;;;;;;3.28;1.35;;;;;;;22.94;52.51;100772.22;5033336;28;20033;-85
2021/07/29 02:15:25;;;;;;;2.85;1.23;;;;;;;22.94;52.43;100766.97;5034197;28;20030;-85
2021/07/29 02:18:01;;;;;;;2.35;1.20;;;;;;;22.94;52.23;100766.97;5039488;28;20171;-85
2021/07/29 02:20:28;;;;;;;2.15;1.20;;;;;;;22.94;52.32;100764.34;5045994;28;20388;-85
2021/07/29 02:22:54;;;;;;;2.00;1.20;;;;;;;22.92;52.18;100768.78;5049792;28;20027;-85
2021/07/29 02:25:19;;;;;;;2.10;1.00;;;;;;;22.93;52.44;100767.84;5035429;28;20057;-85
2021/07/29 02:27:45;;;;;;;1.83;1.10;;;;;;;22.93;52.38;100774.00;5019681;28;20496;-85
2021/07/29 02:30:11;;;;;;;2.20;1.10;;;;;;;22.93;52.49;100763.50;5025578;28;20036;-85
2021/07/29 02:32:37;;;;;;;1.45;0.93;;;;;;;22.94;52.58;100782.72;5040781;28;20033;-85
2021/07/29 02:35:03;;;;;;;2.58;1.23;;;;;;;22.92;52.25;100779.28;5035724;28;20029;-85
2021/07/29 02:37:28;;;;;;;2.58;0.90;;;;;;;22.92;52.42;100777.50;5033533;28;20029;-85
2021/07/29 02:39:54;;;;;;;2.00;1.00;;;;;;;22.92;52.33;100782.75;5020997;28;20472;-84
2021/07/29 02:42:19;;;;;;;2.10;1.00;;;;;;;22.90;52.78;100784.56;5024529;28;20095;-86
2021/07/29 02:44:45;;;;;;;3.53;1.15;;;;;;;22.92;52.36;100785.38;5039004;28;20510;-86
2021/07/29 02:47:10;;;;;;;2.25;1.17;;;;;;;22.91;52.19;100785.44;5037766;28;20504;-85
2021/07/29 02:49:36;;;;;;;2.50;1.00;;;;;;;22.91;52.54;100782.81;5020314;28;20045;-85
2021/07/29 02:52:02;;;;;;;2.53;0.90;;;;;;;22.90;52.41;100787.19;5021660;28;20029;-86
2021/07/29 02:54:27;;;;;;;1.67;1.13;;;;;;;22.91;52.38;100782.81;5024233;28;20033;-85
2021/07/29 02:56:53;;;;;;;1.50;0.88;;;;;;;22.89;52.77;100775.00;5017655;28;20182;-85
2021/07/29 02:59:18;;;;;;;1.70;0.93;;;;;;;22.90;52.61;100787.19;5025267;28;20052;-85
2021/07/29 03:01:43;;;;;;;2.08;1.08;;;;;;;22.90;52.49;100788.97;5036114;28;20048;-85
2021/07/29 03:04:09;;;;;;;1.58;0.82;;;;;;;22.89;52.82;100784.63;5035998;28;20037;-85
2021/07/29 03:06:34;;;;;;;1.60;1.10;;;;;;;22.90;52.72;100783.72;5019503;28;20025;-85
2021/07/29 03:09:00;;;;;;;2.00;0.95;;;;;;;22.90;52.53;100795.06;5035927;28;20026;-86
2021/07/29 03:11:26;;;;;;;1.52;0.98;;;;;;;22.86;52.79;100797.84;5019714;28;20391;-86
2021/07/29 03:13:52;;;;;;;2.25;1.05;;;;;;;22.78;52.79;100798.94;5035890;28;20025;-81
2021/07/29 03:16:18;;;;;;;1.73;0.85;;;;;;;22.73;53.01;100798.25;5036961;28;20109;-81
2021/07/29 03:18:43;;;;;;;1.95;0.90;;;;;;;22.70;53.05;100794.84;5002879;28;20040;-84
2021/07/29 03:21:09;;;;;;;2.58;1.00;;;;;;;22.67;53.05;100798.44;5035632;28;20029;-83
2021/07/29 03:23:35;;;;;;;1.27;0.80;;;;;;;22.62;53.19;100802.94;5035773;28;20374;-83
2021/07/29 03:26:01;;;;;;;2.13;0.80;;;;;;;22.59;52.98;100795.19;5035714;28;20029;-81
2021/07/29 03:28:26;;;;;;;5.28;1.08;;;;;;;22.62;52.59;100805.56;5035918;28;20552;-88
2021/07/29 03:30:52;;;;;;;5.88;1.42;;;;;;;22.71;52.03;100796.56;5019269;28;20025;-88
2021/07/29 03:33:18;;;;;;;3.10;1.02;;;;;;;22.74;52.02;100797.34;5035969;28;20041;-88
2021/07/29 03:35:43;;;;;;;2.70;0.90;;;;;;;22.75;52.02;100803.44;5068766;28;20392;-87
2021/07/29 03:38:09;;;;;;;2.50;1.00;;;;;;;22.76;52.09;100794.66;5002792;28;20037;-88
2021/07/29 03:40:36;;;;;;;1.13;0.70;;;;;;;22.78;52.46;100795.47;5035562;28;20550;-89
2021/07/29 03:43:02;;;;;;;3.30;1.00;;;;;;;22.78;52.13;100801.56;5036596;28;20021;-87
2021/07/29 03:45:31;;;;;;;3.75;1.17;;;;;;;22.78;52.19;100801.56;5019112;28;20021;-88
2021/07/29 03:47:58;;;;;;;4.93;0.98;;;;;;;22.82;51.93;100801.47;5018530;28;20049;-88
2021/07/29 03:50:23;;;;;;;1.73;0.80;;;;;;;22.80;52.17;100796.28;5035607;28;20037;-88
2021/07/29 03:52:49;;;;;;;5.18;1.83;;;;;;;22.90;52.21;100796.84;5035587;28;20470;-85
2021/07/29 03:55:15;;;;;;;9.25;2.55;;;;;;;22.94;52.33;100794.06;5021713;28;20120;-86
2021/07/29 03:57:40;;;;;;;12.80;2.75;;;;;;;22.96;52.44;100808.00;5036850;28;20079;-86
2021/07/29 04:00:06;;;;;;;11.52;2.25;;;;;;;22.92;52.47;100803.75;5018669;28;20061;-83
2021/07/29 04:02:33;;;;;;;18.77;2.70;;;;;;;22.91;52.77;100811.69;5035063;28;20763;-88
2021/07/29 04:04:58;;;;;;;8.68;2.70;;;;;;;22.88;52.80;100807.38;5018474;28;20037;-86
2021/07/29 04:07:24;;;;;;;8.48;2.63;;;;;;;22.87;52.78;100812.69;5018422;28;20451;-88
2021/07/29 04:09:50;;;;;;;7.70;2.40;;;;;;;22.87;52.65;100813.53;5002073;28;20041;-84
2021/07/29 04:12:16;;;;;;;8.55;2.47;;;;;;;22.87;52.57;100816.16;5019832;28;20044;-94
2021/07/29 04:14:41;;;;;;;10.43;2.60;;;;;;;22.86;52.75;100816.22;5035367;28;20104;-88
2021/07/29 04:17:06;;;;;;;8.70;3.35;;;;;;;22.86;52.41;100824.06;5018218;28;20396;-87
2021/07/29 04:19:33;;;;;;;14.52;3.20;;;;;;;22.85;52.46;100823.22;5018131;28;20025;-89
2021/07/29 04:21:59;;;;;;;15.20;3.35;;;;;;;22.86;52.41;100830.19;5018222;28;20025;-88
2021/07/29 04:24:26;;;;;;;8.43;3.30;;;;;;;22.85;52.21;100820.59;5018060;28;20572;-83
2021/07/29 04:26:52;;;;;;;9.02;3.60;;;;;;;22.85;52.41;100825.84;5017968;28;20037;-85
2021/07/29 04:29:17;;;;;;;10.63;3.40;;;;;;;22.85;52.27;100817.13;5035721;28;20372;-88
2021/07/29 04:31:43;;;;;;;9.95;3.42;;;;;;;22.86;51.92;100827.56;5018311;28;20444;-90
2021/07/29 04:34:09;;;;;;;11.98;3.65;;;;;;;22.85;51.98;100819.75;5017701;28;20030;-86
2021/07/29 04:36:39;;;;;;;9.95;3.47;;;;;;;22.84;52.06;100818.03;5018096;28;20025;-90
2021/07/29 04:39:05;;;;;;;9.13;3.30;;;;;;;22.85;52.20;100822.38;5034466;28;20028;-89
2021/07/29 04:41:30;;;;;;;9.07;3.55;;;;;;;22.83;51.97;100830.28;5034218;28;20029;-87
